Time;durP1;ratioP1;P1;durP2;ratioP2;P2;SDS_P1;SDS_P2;PMS_P1;PMS_P2;Temp;Humidity;BMP_temperature;BMP_pressure;BME280_temperature;BME280_humidity;BME280_pressure;Samples;Min_cycle;Max_cycle;Signal;HPM_P1;HPM_P2
2023/11/03 00:02:23;;;;;;;1.43;0.80;;;20.10;76.70;;;;;;5054589;28;20447;-91
2023/11/03 00:04:52;;;;;;;1.20;0.80;;;20.10;76.70;;;;;;5054388;28;20806;-91
2023/11/03 00:07:19;;;;;;;1.10;0.90;;;20.10;77.50;;;;;;5054368;28;20802;-91
2023/11/03 00:09:46;;;;;;;1.97;1.10;;;20.10;76.60;;;;;;5054382;28;20499;-91
2023/11/03 00:12:13;;;;;;;1.40;0.97;;;20.10;76.70;;;;;;5054090;28;20476;-92
2023/11/03 00:14:40;;;;;;;1.47;0.93;;;20.10;76.70;;;;;;5054265;28;20437;-96
2023/11/03 00:17:07;;;;;;;1.30;0.80;;;20.10;76.70;;;;;;5053948;28;20444;-92
2023/11/03 00:19:35;;;;;;;1.40;0.90;;;20.10;76.70;;;;;;5054169;28;20445;-95
2023/11/03 00:22:03;;;;;;;3.73;0.93;;;20.10;76.80;;;;;;5054321;28;20453;-92
2023/11/03 00:24:30;;;;;;;1.23;0.80;;;20.10;76.70;;;;;;5054055;28;20449;-91
2023/11/03 00:26:57;;;;;;;1.57;1.00;;;20.10;76.70;;;;;;5053975;28;20525;-92
2023/11/03 00:29:24;;;;;;;1.00;0.70;;;20.10;76.70;;;;;;5053980;28;20441;-94
2023/11/03 00:31:51;;;;;;;1.43;0.80;;;20.10;76.70;;;;;;5054001;28;20479;-91
2023/11/03 00:34:19;;;;;;;1.57;0.93;;;20.10;76.70;;;;;;5053735;28;20440;-91
2023/11/03 00:36:47;;;;;;;1.77;0.97;;;20.10;76.80;;;;;;5053535;28;20480;-92
2023/11/03 00:39:18;;;;;;;1.30;0.90;;;20.10;76.70;;;;;;5053511;28;20449;-91
2023/11/03 00:41:47;;;;;;;1.20;1.00;;;20.10;76.70;;;;;;5054086;28;20494;-91
2023/11/03 00:44:15;;;;;;;1.73;0.90;;;20.10;76.70;;;;;;5054158;28;20449;-91
2023/11/03 00:46:43;;;;;;;1.40;0.87;;;20.10;76.70;;;;;;5053572;28;20483;-91
2023/11/03 00:49:11;;;;;;;1.10;0.80;;;20.00;76.50;;;;;;5053851;28;20441;-91
2023/11/03 00:51:38;;;;;;;2.20;0.87;;;20.10;76.70;;;;;;5053715;28;20444;-92
2023/11/03 00:54:07;;;;;;;1.50;0.90;;;20.10;76.70;;;;;;5053801;28;20440;-91
2023/11/03 00:56:35;;;;;;;1.20;0.80;;;20.00;76.60;;;;;;5053416;28;20576;-95
2023/11/03 00:59:02;;;;;;;2.10;0.90;;;20.00;76.50;;;;;;5053552;28;20444;-91
2023/11/03 01:01:30;;;;;;;1.23;0.80;;;20.00;76.50;;;;;;5053595;28;20978;-92
2023/11/03 01:03:58;;;;;;;1.93;0.90;;;20.00;76.50;;;;;;5053516;28;20506;-91
2023/11/03 01:06:25;;;;;;;1.27;0.70;;;20.10;76.60;;;;;;5053732;28;20855;-91
2023/11/03 01:08:52;;;;;;;2.13;0.93;;;20.00;76.50;;;;;;5053347;28;20993;-92
2023/11/03 01:11:20;;;;;;;1.07;0.80;;;20.00;76.60;;;;;;5052799;28;20946;-91
2023/11/03 01:13:48;;;;;;;1.20;0.80;;;20.00;76.50;;;;;;5053440;28;20820;-92
2023/11/03 01:16:16;;;;;;;1.30;1.13;;;20.00;76.60;;;;;;5053031;28;20500;-92
2023/11/03 01:18:45;;;;;;;1.47;0.80;;;20.00;76.60;;;;;;5053782;28;20540;-91
2023/11/03 01:21:15;;;;;;;1.10;1.00;;;20.00;76.50;;;;;;5053386;28;20452;-94
2023/11/03 01:23:42;;;;;;;1.20;0.90;;;20.00;76.50;;;;;;5053254;28;20548;-92
2023/11/03 01:26:10;;;;;;;1.10;0.90;;;20.00;76.40;;;;;;5053276;28;20979;-92
2023/11/03 01:28:37;;;;;;;1.23;0.80;;;20.00;76.50;;;;;;5053230;28;20817;-91
2023/11/03 01:31:06;;;;;;;1.40;0.80;;;20.00;77.30;;;;;;5053016;28;20441;-92
2023/11/03 01:33:34;;;;;;;1.10;0.70;;;20.00;76.50;;;;;;5053232;28;20499;-91
2023/11/03 01:36:04;;;;;;;1.30;0.80;;;20.00;76.50;;;;;;5053119;28;20480;-92
2023/11/03 01:38:30;;;;;;;2.43;0.90;;;20.00;76.50;;;;;;5053206;28;20456;-92
2023/11/03 01:41:00;;;;;;;1.40;0.80;;;20.00;76.50;;;;;;5053225;28;20531;-91
2023/11/03 01:43:27;;;;;;;1.37;0.90;;;20.00;76.40;;;;;;5053160;28;20465;-92
2023/11/03 01:45:53;;;;;;;1.83;0.70;;;20.00;76.40;;;;;;5053157;28;20500;-91
2023/11/03 01:48:22;;;;;;;1.30;0.90;;;20.00;76.40;;;;;;5052986;28;20539;-92
2023/11/03 01:50:48;;;;;;;1.00;0.80;;;20.00;76.40;;;;;;5052849;28;20842;-92
2023/11/03 01:53:16;;;;;;;1.07;0.70;;;20.00;76.40;;;;;;5053105;28;20467;-92
2023/11/03 01:55:46;;;;;;;1.13;0.90;;;20.00;76.40;;;;;;5053056;28;20556;-92
2023/11/03 01:58:14;;;;;;;1.30;1.00;;;20.00;76.40;;;;;;5053109;28;20445;-92
2023/11/03 02:00:41;;;;;;;2.43;1.10;;;20.00;76.30;;;;;;5053115;28;20448;-91
2023/11/03 02:03:08;;;;;;;0.97;0.63;;;20.00;76.30;;;;;;5052932;28;20472;-95
2023/11/03 02:05:38;;;;;;;1.00;0.63;;;20.00;76.40;;;;;;5052878;28;20472;-92
2023/11/03 02:08:05;;;;;;;1.30;0.90;;;20.00;76.40;;;;;;5052892;28;20444;-91
2023/11/03 02:10:32;;;;;;;1.20;0.77;;;20.00;76.30;;;;;;5052779;28;20529;-91
2023/11/03 02:13:00;;;;;;;1.10;0.70;;;20.00;76.40;;;;;;5052457;28;20477;-91
2023/11/03 02:15:27;;;;;;;1.30;0.80;;;20.00;76.30;;;;;;5052879;28;20443;-92
2023/11/03 02:17:54;;;;;;;2.20;0.80;;;20.00;76.30;;;;;;5052753;28;20540;-95
2023/11/03 02:20:22;;;;;;;1.67;1.03;;;20.00;76.30;;;;;;5052625;28;20524;-91
2023/11/03 02:22:54;;;;;;;1.43;0.90;;;20.00;76.30;;;;;;5054088;28;20877;-92
2023/11/03 02:25:21;;;;;;;1.10;0.80;;;20.00;76.30;;;;;;5056706;28;20811;-94
2023/11/03 02:27:49;;;;;;;1.13;0.90;;;20.00;76.30;;;;;;5056337;28;20441;-92
2023/11/03 02:30:16;;;;;;;1.17;0.87;;;20.00;76.30;;;;;;5056496;28;20531;-92
2023/11/03 02:32:43;;;;;;;1.93;1.13;;;20.00;76.20;;;;;;5056062;28;21033;-92
2023/11/03 02:35:10;;;;;;;1.00;0.73;;;20.00;76.30;;;;;;5055974;28;20528;-95
2023/11/03 02:37:37;;;;;;;1.00;0.70;;;20.00;76.30;;;;;;5055909;28;20910;-92
2023/11/03 02:40:07;;;;;;;1.50;0.90;;;20.00;76.20;;;;;;5056085;28;20444;-91
2023/11/03 02:42:34;;;;;;;2.23;0.80;;;20.00;76.30;;;;;;5056491;28;20461;-92
2023/11/03 02:45:02;;;;;;;1.30;0.80;;;20.00;76.30;;;;;;5056308;28;20445;-91
2023/11/03 02:47:29;;;;;;;1.37;0.80;;;20.00;76.30;;;;;;5055717;28;20448;-92
2023/11/03 02:49:56;;;;;;;1.10;0.70;;;20.00;76.20;;;;;;5055917;28;20785;-92
2023/11/03 02:52:23;;;;;;;1.10;0.70;;;20.00;76.20;;;;;;5055929;28;20553;-91
2023/11/03 02:54:50;;;;;;;1.10;0.70;;;20.00;76.20;;;;;;5055522;28;20958;-92
2023/11/03 02:57:18;;;;;;;1.10;0.80;;;20.00;76.20;;;;;;5055574;28;21008;-93
2023/11/03 02:59:45;;;;;;;1.20;0.70;;;20.00;76.20;;;;;;5055763;28;20446;-91
2023/11/03 03:02:12;;;;;;;1.40;0.90;;;20.00;76.10;;;;;;5055773;28;20532;-92
2023/11/03 03:04:39;;;;;;;1.10;0.77;;;20.00;76.20;;;;;;5055662;28;20444;-92
2023/11/03 03:07:05;;;;;;;1.40;0.80;;;20.00;76.10;;;;;;5055667;28;20440;-91
2023/11/03 03:09:32;;;;;;;1.30;0.80;;;20.00;76.10;;;;;;5055688;28;20531;-91
2023/11/03 03:11:59;;;;;;;1.10;0.70;;;20.00;76.20;;;;;;5055536;28;20472;-92
2023/11/03 03:14:27;;;;;;;1.57;0.80;;;19.90;76.00;;;;;;5055471;28;20446;-91
2023/11/03 03:16:54;;;;;;;1.00;0.70;;;19.90;76.00;;;;;;5055238;28;20567;-95
2023/11/03 03:19:21;;;;;;;1.57;0.87;;;19.90;76.00;;;;;;5055515;28;20593;-91
2023/11/03 03:21:48;;;;;;;1.00;0.70;;;19.90;76.00;;;;;;5055257;28;20524;-92
2023/11/03 03:24:15;;;;;;;1.70;0.80;;;19.90;76.00;;;;;;5055481;28;20962;-91
2023/11/03 03:26:42;;;;;;;1.00;0.80;;;19.90;76.00;;;;;;5055280;28;20452;-91
2023/11/03 03:29:09;;;;;;;1.70;0.77;;;19.90;75.90;;;;;;5055162;28;20439;-92
2023/11/03 03:31:37;;;;;;;1.30;0.90;;;19.90;75.90;;;;;;5055326;28;20543;-91
2023/11/03 03:34:04;;;;;;;1.30;0.73;;;19.90;75.90;;;;;;5054808;28;20481;-92
2023/11/03 03:36:31;;;;;;;1.20;0.80;;;19.90;75.90;;;;;;5054830;28;20570;-91
2023/11/03 03:38:58;;;;;;;1.93;0.87;;;19.90;75.90;;;;;;5055066;28;20543;-91
2023/11/03 03:41:25;;;;;;;1.03;0.70;;;19.90;75.90;;;;;;5055231;28;20527;-91
2023/11/03 03:43:52;;;;;;;1.10;0.70;;;19.90;75.90;;;;;;5054927;28;20539;-91
2023/11/03 03:46:18;;;;;;;1.30;0.80;;;19.90;75.90;;;;;;5054936;28;20480;-92
2023/11/03 03:48:47;;;;;;;1.37;0.87;;;19.90;75.90;;;;;;5054706;28;20531;-92
2023/11/03 03:51:13;;;;;;;1.10;0.73;;;19.90;75.90;;;;;;5054800;28;20540;-91
2023/11/03 03:53:41;;;;;;;1.30;1.00;;;19.90;75.90;;;;;;5054699;28;20539;-91
2023/11/03 03:56:07;;;;;;;1.10;0.77;;;19.90;75.90;;;;;;5054651;28;20479;-91
2023/11/03 03:58:34;;;;;;;1.10;0.70;;;19.90;75.80;;;;;;5054880;28;20535;-91
2023/11/03 04:01:01;;;;;;;1.20;0.80;;;19.90;75.90;;;;;;5054167;28;20960;-92
2023/11/03 04:03:28;;;;;;;1.63;0.77;;;19.90;75.80;;;;;;5054427;28;20535;-92
2023/11/03 04:05:56;;;;;;;1.13;0.73;;;19.90;75.90;;;;;;5054147;28;20437;-91
2023/11/03 04:08:23;;;;;;;1.40;0.70;;;19.90;75.80;;;;;;5054453;28;20470;-91
2023/11/03 04:10:50;;;;;;;1.50;0.77;;;19.90;75.80;;;;;;5054467;28;20476;-91
2023/11/03 04:13:17;;;;;;;1.37;1.10;;;19.90;75.80;;;;;;5053932;28;20564;-91
2023/11/03 04:15:44;;;;;;;1.53;0.70;;;19.90;75.80;;;;;;5054118;28;20924;-92
2023/11/03 04:18:11;;;;;;;1.07;0.80;;;19.90;75.80;;;;;;5054200;28;20520;-92
2023/11/03 04:20:38;;;;;;;1.10;0.80;;;19.90;75.80;;;;;;5054175;28;20472;-92
2023/11/03 04:23:06;;;;;;;1.63;0.80;;;19.90;75.80;;;;;;5053961;28;20446;-91
2023/11/03 04:25:33;;;;;;;1.00;0.70;;;19.90;75.70;;;;;;5054161;28;20476;-91
2023/11/03 04:28:00;;;;;;;1.50;1.10;;;19.90;75.70;;;;;;5054036;28;20880;-91
2023/11/03 04:30:27;;;;;;;1.10;0.80;;;19.90;76.50;;;;;;5054072;28;20451;-91
2023/11/03 04:32:54;;;;;;;1.40;0.90;;;19.90;75.70;;;;;;5054160;28;20533;-91
2023/11/03 04:35:21;;;;;;;0.90;0.60;;;19.90;75.80;;;;;;5053936;28;20927;-91
2023/11/03 04:37:49;;;;;;;1.50;0.60;;;19.90;75.70;;;;;;5053634;28;20998;-91
2023/11/03 04:40:19;;;;;;;1.50;0.73;;;19.90;75.70;;;;;;5053707;28;20444;-95
2023/11/03 04:42:46;;;;;;;1.10;0.70;;;19.90;75.70;;;;;;5053702;28;20494;-91
2023/11/03 04:45:13;;;;;;;1.00;0.77;;;19.90;75.70;;;;;;5053149;28;20529;-93
2023/11/03 04:47:40;;;;;;;1.40;0.80;;;19.90;75.70;;;;;;5053560;28;20849;-92
2023/11/03 04:50:10;;;;;;;1.10;0.70;;;19.90;75.60;;;;;;5053754;28;20465;-92
2023/11/03 04:52:37;;;;;;;1.10;0.80;;;19.90;75.70;;;;;;5053524;28;20506;-92
2023/11/03 04:55:04;;;;;;;1.00;0.60;;;19.90;75.60;;;;;;5053531;28;20437;-91
2023/11/03 04:57:32;;;;;;;1.10;0.70;;;19.90;75.70;;;;;;5053442;28;20537;-91
2023/11/03 04:59:59;;;;;;;1.10;0.80;;;19.90;75.60;;;;;;5053582;28;20531;-91
2023/11/03 05:02:27;;;;;;;1.40;0.70;;;19.90;75.60;;;;;;5053586;28;20794;-91
2023/11/03 05:04:54;;;;;;;1.10;0.80;;;19.90;75.60;;;;;;5053948;28;20452;-91
2023/11/03 05:07:23;;;;;;;1.07;0.70;;;19.90;75.60;;;;;;5035793;28;20443;-91
2023/11/03 05:09:51;;;;;;;1.17;0.80;;;19.90;75.60;;;;;;5053322;28;20455;-91
2023/11/03 05:12:18;;;;;;;1.83;1.13;;;19.90;75.60;;;;;;5052992;28;20568;-92
2023/11/03 05:14:46;;;;;;;1.00;0.70;;;19.90;75.60;;;;;;5053508;28;20472;-91
2023/11/03 05:17:13;;;;;;;1.17;0.97;;;19.90;75.60;;;;;;5052995;28;20571;-92
2023/11/03 05:19:40;;;;;;;1.00;0.60;;;19.90;76.40;;;;;;5053316;28;20472;-91
2023/11/03 05:22:08;;;;;;;1.00;0.70;;;19.90;75.50;;;;;;5053247;28;20535;-91
2023/11/03 05:24:36;;;;;;;1.60;0.80;;;19.90;75.50;;;;;;5053341;28;20847;-92
2023/11/03 05:27:03;;;;;;;1.63;1.00;;;19.90;76.40;;;;;;5053255;28;20440;-91
2023/11/03 05:29:31;;;;;;;1.23;0.90;;;19.90;75.60;;;;;;5053437;28;20441;-91
2023/11/03 05:31:59;;;;;;;1.20;0.73;;;19.80;75.50;;;;;;5053232;28;20535;-92
2023/11/03 05:34:26;;;;;;;1.10;0.70;;;19.90;75.60;;;;;;5053274;28;20467;-94
2023/11/03 05:36:53;;;;;;;1.10;0.70;;;19.90;75.60;;;;;;5053132;28;20476;-91
2023/11/03 05:39:20;;;;;;;1.00;0.77;;;19.80;75.40;;;;;;5053150;28;20449;-91
2023/11/03 05:41:47;;;;;;;1.27;0.80;;;19.90;75.50;;;;;;5053190;28;20475;-95
2023/11/03 05:44:13;;;;;;;1.00;0.70;;;19.90;75.50;;;;;;5053001;28;20494;-91
2023/11/03 05:46:40;;;;;;;1.10;0.70;;;19.80;75.50;;;;;;5053375;28;20443;-91
2023/11/03 05:49:09;;;;;;;1.10;0.80;;;19.80;75.50;;;;;;5052955;28;20432;-91
2023/11/03 05:51:36;;;;;;;1.20;0.80;;;19.80;75.50;;;;;;5053327;28;20437;-91
2023/11/03 05:54:03;;;;;;;1.53;1.00;;;19.80;75.40;;;;;;5052905;28;20436;-92
2023/11/03 05:56:30;;;;;;;2.50;0.87;;;19.80;75.40;;;;;;5053564;28;20483;-91
2023/11/03 05:58:57;;;;;;;1.37;0.80;;;19.80;75.40;;;;;;5056837;28;20459;-91
2023/11/03 06:01:24;;;;;;;1.20;0.70;;;19.80;75.30;;;;;;5056853;28;20531;-95
2023/11/03 06:03:50;;;;;;;1.00;0.80;;;19.80;76.10;;;;;;5056965;28;20448;-95
2023/11/03 06:06:19;;;;;;;1.30;0.77;;;19.80;75.40;;;;;;5056947;28;20561;-95
2023/11/03 06:08:46;;;;;;;1.00;0.70;;;19.80;75.30;;;;;;5056663;28;20453;-91
2023/11/03 06:11:13;;;;;;;1.47;0.80;;;19.80;75.40;;;;;;5056597;28;20452;-91
2023/11/03 06:13:40;;;;;;;1.20;0.80;;;19.80;75.40;;;;;;5056565;28;20563;-91
2023/11/03 06:16:08;;;;;;;1.10;0.70;;;19.80;75.40;;;;;;5056424;28;20531;-95
2023/11/03 06:18:35;;;;;;;0.90;0.60;;;19.80;75.40;;;;;;5056406;28;20484;-91
2023/11/03 06:21:02;;;;;;;1.00;0.63;;;19.80;75.40;;;;;;5056394;28;20471;-95
2023/11/03 06:23:30;;;;;;;1.30;1.13;;;19.80;75.30;;;;;;5056331;28;20477;-91
2023/11/03 06:25:57;;;;;;;1.10;0.80;;;19.80;75.30;;;;;;5056809;28;20879;-93
2023/11/03 06:28:24;;;;;;;1.10;0.80;;;19.80;75.30;;;;;;5056785;28;20783;-91
2023/11/03 06:30:51;;;;;;;2.13;0.97;;;19.80;75.30;;;;;;5056178;28;20446;-91
2023/11/03 06:33:18;;;;;;;1.20;0.70;;;19.80;75.30;;;;;;5055876;28;20835;-94
2023/11/03 06:35:45;;;;;;;1.70;0.80;;;19.80;75.30;;;;;;5056247;28;20535;-91
2023/11/03 06:38:11;;;;;;;2.00;1.10;;;19.80;75.30;;;;;;5055979;28;21060;-91
2023/11/03 06:40:40;;;;;;;1.40;0.90;;;19.80;75.20;;;;;;5056088;28;20480;-91
2023/11/03 06:43:06;;;;;;;1.33;0.80;;;19.80;75.20;;;;;;5056030;28;20491;-91
2023/11/03 06:45:33;;;;;;;1.00;0.70;;;19.80;75.20;;;;;;5056091;28;20534;-91
2023/11/03 06:48:00;;;;;;;1.10;0.77;;;19.80;75.20;;;;;;5055830;28;20872;-95
2023/11/03 06:50:28;;;;;;;1.10;0.80;;;19.80;75.20;;;;;;5056155;28;20827;-91
2023/11/03 06:52:56;;;;;;;1.60;0.77;;;19.80;75.20;;;;;;5055879;28;20935;-92
2023/11/03 06:55:22;;;;;;;1.30;0.83;;;19.80;75.20;;;;;;5055785;28;20482;-91
2023/11/03 06:57:51;;;;;;;1.83;1.10;;;19.80;75.20;;;;;;5055734;28;20893;-91
2023/11/03 07:00:18;;;;;;;1.30;0.80;;;19.80;75.30;;;;;;5055771;28;20534;-92
2023/11/03 07:02:45;;;;;;;1.17;0.80;;;19.80;75.30;;;;;;5055824;28;20531;-91
2023/11/03 07:05:13;;;;;;;1.17;0.80;;;19.80;75.30;;;;;;5055769;28;20532;-91
2023/11/03 07:07:40;;;;;;;1.23;0.87;;;19.80;75.20;;;;;;5055326;28;20449;-92
2023/11/03 07:10:09;;;;;;;1.27;0.77;;;19.80;75.20;;;;;;5055146;28;20863;-91
2023/11/03 07:12:36;;;;;;;1.30;0.70;;;19.80;75.30;;;;;;5055353;28;20572;-91
2023/11/03 07:15:06;;;;;;;1.50;0.80;;;19.80;75.20;;;;;;5055495;28;21008;-94
2023/11/03 07:17:34;;;;;;;1.40;0.97;;;19.80;75.20;;;;;;5055495;28;20489;-94
2023/11/03 07:20:00;;;;;;;1.10;0.80;;;19.80;75.20;;;;;;5054985;28;20535;-91
2023/11/03 07:22:29;;;;;;;1.03;0.70;;;19.80;75.20;;;;;;5055316;28;20448;-91
2023/11/03 07:24:56;;;;;;;1.60;0.83;;;19.80;75.10;;;;;;5055190;28;20453;-91
2023/11/03 07:27:23;;;;;;;1.00;0.70;;;19.80;75.10;;;;;;5055032;28;20446;-91
2023/11/03 07:29:51;;;;;;;1.00;0.73;;;19.80;75.10;;;;;;5055134;28;20453;-91
2023/11/03 07:32:20;;;;;;;1.87;0.83;;;19.80;75.10;;;;;;5055147;28;20974;-91
2023/11/03 07:34:46;;;;;;;1.90;0.87;;;19.80;75.10;;;;;;5055134;28;20455;-91
2023/11/03 07:37:13;;;;;;;1.20;0.70;;;19.80;75.10;;;;;;5055082;28;20528;-91
2023/11/03 07:39:40;;;;;;;1.10;0.70;;;19.80;75.10;;;;;;5054973;28;20552;-91
2023/11/03 07:42:08;;;;;;;3.53;0.90;;;19.80;75.10;;;;;;5054825;28;20467;-91
2023/11/03 07:44:36;;;;;;;1.70;0.90;;;19.80;75.10;;;;;;5055071;28;20483;-91
2023/11/03 07:47:06;;;;;;;1.10;0.80;;;19.80;75.10;;;;;;5054741;28;20444;-91
2023/11/03 07:49:36;;;;;;;0.90;0.60;;;19.80;75.10;;;;;;5054566;28;20440;-92
2023/11/03 07:52:03;;;;;;;1.20;0.80;;;19.90;75.20;;;;;;5054749;28;20444;-92
2023/11/03 07:54:30;;;;;;;1.03;0.70;;;19.90;75.20;;;;;;5054602;28;20450;-91
2023/11/03 07:56:57;;;;;;;1.20;0.80;;;19.80;75.10;;;;;;5054537;28;20441;-91
2023/11/03 07:59:24;;;;;;;1.23;0.80;;;19.80;75.10;;;;;;5054530;28;20476;-91
2023/11/03 08:01:51;;;;;;;1.60;0.70;;;19.90;75.20;;;;;;5054409;28;20527;-91
2023/11/03 08:04:19;;;;;;;1.40;0.77;;;19.80;75.10;;;;;;5054663;28;20801;-91
2023/11/03 08:06:48;;;;;;;1.10;0.70;;;19.90;75.20;;;;;;5054025;28;20985;-92
2023/11/03 08:09:15;;;;;;;1.20;0.80;;;19.90;75.20;;;;;;5054610;28;20797;-91
2023/11/03 08:11:42;;;;;;;2.37;0.60;;;19.80;75.00;;;;;;5053930;28;21062;-91
2023/11/03 08:14:09;;;;;;;1.10;0.80;;;19.90;75.10;;;;;;5054299;28;20448;-91
2023/11/03 08:16:42;;;;;;;1.40;0.80;;;19.80;75.00;;;;;;5054261;28;20789;-91
2023/11/03 08:19:09;;;;;;;1.20;0.90;;;19.90;75.00;;;;;;5053982;28;20536;-91
2023/11/03 08:21:41;;;;;;;1.30;1.00;;;19.90;75.00;;;;;;5053251;28;20444;-91
2023/11/03 08:24:11;;;;;;;2.53;0.90;;;19.90;75.00;;;;;;5054230;28;20894;-91
2023/11/03 08:26:38;;;;;;;1.43;1.00;;;19.90;75.00;;;;;;5054054;28;20438;-91
2023/11/03 08:29:05;;;;;;;1.00;0.67;;;19.90;75.00;;;;;;5054039;28;20473;-92
2023/11/03 08:31:34;;;;;;;1.57;0.87;;;19.90;74.90;;;;;;5053899;28;20440;-91
2023/11/03 08:34:03;;;;;;;1.00;0.77;;;19.90;75.00;;;;;;5053865;28;20535;-91
2023/11/03 08:36:30;;;;;;;1.40;0.90;;;19.90;75.00;;;;;;5053945;28;20433;-91
2023/11/03 08:38:56;;;;;;;1.10;0.80;;;19.90;75.00;;;;;;5053749;28;20480;-91
2023/11/03 08:41:26;;;;;;;1.30;0.90;;;19.90;75.00;;;;;;5053664;28;20448;-91
2023/11/03 08:43:53;;;;;;;1.50;0.97;;;19.90;75.00;;;;;;5053664;28;20453;-92
2023/11/03 08:46:20;;;;;;;2.07;0.90;;;20.00;75.10;;;;;;5053578;28;20531;-91
2023/11/03 08:48:47;;;;;;;1.63;0.80;;;19.90;75.00;;;;;;5053844;28;20441;-91
2023/11/03 08:51:15;;;;;;;2.70;1.10;;;20.00;75.00;;;;;;5053677;28;20532;-91
2023/11/03 08:53:43;;;;;;;1.40;0.70;;;20.00;75.00;;;;;;5053741;28;20479;-92
2023/11/03 08:56:12;;;;;;;1.40;1.03;;;20.00;75.00;;;;;;5053516;28;20872;-91
2023/11/03 08:58:41;;;;;;;1.10;0.80;;;20.00;75.00;;;;;;5053346;28;20535;-91
2023/11/03 09:01:09;;;;;;;1.27;0.70;;;20.00;75.00;;;;;;5053560;28;20453;-91
2023/11/03 09:03:36;;;;;;;2.10;1.00;;;20.00;74.90;;;;;;5053405;28;20443;-91
2023/11/03 09:06:05;;;;;;;1.33;0.80;;;20.00;75.80;;;;;;5053540;28;20476;-91
2023/11/03 09:08:33;;;;;;;1.27;0.77;;;20.00;75.00;;;;;;5053689;28;20451;-91
2023/11/03 09:11:00;;;;;;;1.20;0.77;;;20.00;75.00;;;;;;5053378;28;20875;-91
2023/11/03 09:13:27;;;;;;;1.77;0.70;;;20.00;75.00;;;;;;5052931;28;20477;-91
2023/11/03 09:15:56;;;;;;;1.30;0.80;;;20.00;75.00;;;;;;5053365;28;20447;-91
2023/11/03 09:18:23;;;;;;;1.30;0.80;;;20.00;75.10;;;;;;5053107;28;20909;-92
2023/11/03 09:20:50;;;;;;;1.47;0.83;;;20.00;75.10;;;;;;5053477;28;20455;-92
2023/11/03 09:23:17;;;;;;;1.40;0.90;;;20.00;75.10;;;;;;5053317;28;20451;-91
2023/11/03 09:25:44;;;;;;;1.40;0.80;;;20.00;75.10;;;;;;5053124;28;20534;-91
2023/11/03 09:28:11;;;;;;;1.00;0.70;;;20.00;75.10;;;;;;5053134;28;20531;-91
2023/11/03 09:30:38;;;;;;;1.10;0.73;;;20.00;75.10;;;;;;5053447;28;20862;-91
2023/11/03 09:33:07;;;;;;;1.83;1.63;;;20.00;75.10;;;;;;5056668;28;20467;-91
2023/11/03 09:35:35;;;;;;;1.17;0.80;;;20.00;75.10;;;;;;5057293;28;20457;-91
2023/11/03 09:38:03;;;;;;;1.10;0.80;;;20.00;75.10;;;;;;5057324;28;20471;-91
2023/11/03 09:40:30;;;;;;;1.20;0.80;;;20.00;75.20;;;;;;5057215;28;20449;-91
2023/11/03 09:42:57;;;;;;;1.10;0.80;;;20.00;75.10;;;;;;5056928;28;20492;-91
2023/11/03 09:45:27;;;;;;;1.00;0.70;;;20.00;75.10;;;;;;5057276;28;20468;-91
2023/11/03 09:47:55;;;;;;;1.27;0.70;;;20.00;75.20;;;;;;5057387;28;20506;-94
2023/11/03 09:50:25;;;;;;;1.30;0.90;;;20.00;75.20;;;;;;5056980;28;20433;-91
2023/11/03 09:52:55;;;;;;;2.07;0.97;;;20.00;75.20;;;;;;5057121;28;20437;-91
2023/11/03 09:55:22;;;;;;;2.07;0.80;;;20.00;75.10;;;;;;5057198;28;20441;-91
2023/11/03 09:57:50;;;;;;;1.30;0.73;;;20.00;75.20;;;;;;5056867;28;20494;-94
2023/11/03 10:00:22;;;;;;;1.00;0.80;;;20.00;75.10;;;;;;5056667;28;20455;-92
2023/11/03 10:02:49;;;;;;;2.33;1.00;;;20.00;75.10;;;;;;5056901;28;20911;-91
2023/11/03 10:05:17;;;;;;;2.50;0.80;;;20.00;75.20;;;;;;5056844;28;20531;-91
2023/11/03 10:08:01;;;;;;;1.17;0.83;;;20.00;75.20;;;;;;5056575;28;20448;-91
2023/11/03 10:10:28;;;;;;;1.77;1.10;;;20.00;75.20;;;;;;5056539;28;20460;-92
2023/11/03 10:12:57;;;;;;;1.57;0.80;;;20.00;75.30;;;;;;5056220;28;20474;-91
2023/11/03 10:15:25;;;;;;;1.67;0.87;;;20.00;75.20;;;;;;5056854;28;20526;-91
2023/11/03 10:17:53;;;;;;;1.13;0.90;;;20.00;76.00;;;;;;5056188;28;20436;-92
2023/11/03 10:20:21;;;;;;;1.83;0.93;;;20.00;75.30;;;;;;5056333;28;20471;-91
2023/11/03 10:22:48;;;;;;;1.57;0.80;;;20.00;75.20;;;;;;5056667;28;20455;-91
2023/11/03 10:25:18;;;;;;;1.40;0.80;;;20.00;75.30;;;;;;5056550;28;20452;-92
2023/11/03 10:27:48;;;;;;;1.53;0.80;;;20.00;75.10;;;;;;5056454;28;20539;-92
2023/11/03 10:30:16;;;;;;;1.10;0.80;;;20.00;75.20;;;;;;5056188;28;20436;-92
2023/11/03 10:32:44;;;;;;;1.30;1.07;;;20.00;75.00;;;;;;5056255;28;20443;-91
2023/11/03 10:35:12;;;;;;;1.30;0.87;;;20.00;75.10;;;;;;5055856;28;20931;-91
2023/11/03 10:37:41;;;;;;;1.30;0.90;;;20.00;75.00;;;;;;5055927;28;20923;-92
2023/11/03 10:40:13;;;;;;;1.10;0.90;;;20.00;75.20;;;;;;5055712;28;20479;-91
2023/11/03 10:42:47;;;;;;;1.10;0.80;;;20.00;75.20;;;;;;5055237;28;20456;-92
2023/11/03 10:45:16;;;;;;;1.63;0.80;;;20.00;75.00;;;;;;5055731;28;20451;-91
2023/11/03 10:47:57;;;;;;;1.47;0.70;;;20.20;75.30;;;;;;5055692;28;20444;-91
2023/11/03 10:50:29;;;;;;;1.10;0.77;;;20.10;74.70;;;;;;5056060;28;20447;-92
2023/11/03 10:53:02;;;;;;;1.40;1.13;;;20.10;74.90;;;;;;5056098;28;20436;-92
2023/11/03 10:55:35;;;;;;;1.10;0.80;;;20.20;75.10;;;;;;5056442;28;20448;-91
2023/11/03 10:58:04;;;;;;;1.40;0.80;;;20.20;75.10;;;;;;5056018;28;20440;-93
2023/11/03 11:00:35;;;;;;;1.70;0.87;;;20.30;75.30;;;;;;5055663;28;20472;-91
2023/11/03 11:03:09;;;;;;;1.20;0.83;;;20.30;75.00;;;;;;5055657;28;20465;-92
2023/11/03 11:05:41;;;;;;;1.37;0.80;;;20.40;75.00;;;;;;5055840;28;20470;-91
2023/11/03 11:08:09;;;;;;;2.03;0.93;;;20.40;74.90;;;;;;5055909;28;20797;-92
2023/11/03 11:10:38;;;;;;;1.13;0.80;;;20.40;74.70;;;;;;5055531;28;20447;-92
2023/11/03 11:13:15;;;;;;;1.37;1.00;;;20.40;74.80;;;;;;5055145;28;20473;-92
2023/11/03 11:15:49;;;;;;;1.10;0.90;;;20.50;74.90;;;;;;5055160;28;20955;-92
2023/11/03 11:18:16;;;;;;;1.30;0.83;;;20.50;74.80;;;;;;5055516;28;20503;-92
2023/11/03 11:20:53;;;;;;;1.60;0.90;;;20.50;74.80;;;;;;5055606;28;20506;-92
2023/11/03 11:23:24;;;;;;;1.27;0.73;;;20.50;74.70;;;;;;5055193;28;20444;-92
2023/11/03 11:25:51;;;;;;;1.17;0.80;;;20.50;74.70;;;;;;5055202;28;20491;-92
2023/11/03 11:28:32;;;;;;;1.53;0.80;;;20.50;74.60;;;;;;5055097;28;20801;-91
2023/11/03 11:30:59;;;;;;;1.20;0.70;;;20.60;74.70;;;;;;5055052;28;20437;-92
2023/11/03 11:33:28;;;;;;;1.67;0.90;;;20.60;74.70;;;;;;5055375;28;20840;-92
2023/11/03 11:35:55;;;;;;;1.20;0.80;;;20.60;74.70;;;;;;5055077;28;20479;-92
2023/11/03 11:38:25;;;;;;;1.20;0.80;;;20.60;74.70;;;;;;5054988;28;20464;-91
2023/11/03 11:40:54;;;;;;;4.80;1.10;;;20.60;74.70;;;;;;5055125;28;20438;-92
2023/11/03 11:43:24;;;;;;;1.40;0.87;;;20.60;74.70;;;;;;5054844;28;20457;-92
2023/11/03 11:45:54;;;;;;;1.50;0.77;;;20.60;74.70;;;;;;5055119;28;20840;-92
2023/11/03 11:48:22;;;;;;;1.27;0.80;;;20.60;74.70;;;;;;5055176;28;20540;-91
2023/11/03 11:50:49;;;;;;;1.93;0.80;;;20.50;74.70;;;;;;5054901;28;20478;-92
2023/11/03 11:53:16;;;;;;;1.60;0.93;;;20.50;74.70;;;;;;5054696;28;20464;-92
2023/11/03 11:55:43;;;;;;;1.30;0.83;;;20.60;74.80;;;;;;5054487;28;20463;-93
2023/11/03 11:58:11;;;;;;;1.00;0.70;;;20.50;74.80;;;;;;5054704;28;20472;-92
2023/11/03 12:00:39;;;;;;;1.27;0.90;;;20.50;74.80;;;;;;5054546;28;20567;-91
2023/11/03 12:03:09;;;;;;;1.10;0.80;;;20.50;74.80;;;;;;5054255;28;21007;-92
2023/11/03 12:05:36;;;;;;;1.40;0.80;;;20.50;74.90;;;;;;5054439;28;20539;-91
2023/11/03 12:08:04;;;;;;;1.20;0.80;;;20.50;74.90;;;;;;5054581;28;20473;-92
2023/11/03 12:10:33;;;;;;;2.40;0.83;;;20.50;74.90;;;;;;5054524;28;20528;-92
2023/11/03 12:13:01;;;;;;;1.10;0.90;;;20.50;74.90;;;;;;5053914;28;20490;-92
2023/11/03 12:15:28;;;;;;;1.10;0.70;;;20.50;74.90;;;;;;5054099;28;20495;-91
2023/11/03 12:17:55;;;;;;;1.50;0.90;;;20.60;75.00;;;;;;5054399;28;20445;-92
2023/11/03 12:20:24;;;;;;;1.53;0.90;;;20.60;74.90;;;;;;5053923;28;20575;-92
2023/11/03 12:22:52;;;;;;;1.50;1.03;;;20.60;75.00;;;;;;5054082;28;20532;-92
2023/11/03 12:25:19;;;;;;;1.30;0.80;;;20.60;74.90;;;;;;5054190;28;20448;-91
2023/11/03 12:27:53;;;;;;;1.20;0.93;;;20.60;74.80;;;;;;5053848;28;20928;-92
2023/11/03 12:30:21;;;;;;;1.20;0.80;;;20.60;74.70;;;;;;5054055;28;20440;-92
2023/11/03 12:32:49;;;;;;;1.87;0.90;;;20.60;74.80;;;;;;5054079;28;20901;-91
2023/11/03 12:35:16;;;;;;;1.10;0.90;;;20.60;74.70;;;;;;5053741;28;20437;-92
2023/11/03 12:37:44;;;;;;;1.30;0.90;;;20.60;74.80;;;;;;5054000;28;20469;-91
2023/11/03 12:40:21;;;;;;;1.33;0.90;;;20.60;74.80;;;;;;5053608;28;20571;-92
2023/11/03 12:42:48;;;;;;;1.10;0.80;;;20.60;74.80;;;;;;5053932;28;20963;-91
2023/11/03 12:45:16;;;;;;;1.10;0.77;;;20.60;74.80;;;;;;5053938;28;20465;-91
2023/11/03 12:47:44;;;;;;;1.13;0.73;;;20.70;74.90;;;;;;5053992;28;20440;-91
2023/11/03 12:50:19;;;;;;;1.70;0.90;;;20.60;74.80;;;;;;5053958;28;20503;-92
2023/11/03 12:52:49;;;;;;;1.63;1.00;;;20.70;74.90;;;;;;5053820;28;20439;-92